Terminal Aerodrome Forecast
Issued by NWS New Orleans/Baton Rouge, LA

Home | Current Version | Previous Version | Text Only | Print | Product List | Glossary On
Versions: 1 2 3 4 5 6 7 8 9 10 11
754
FTUS44 KLIX 081737
TAFBTR
TAF
KBTR 081737Z 0818/0918 30015G25KT P6SM SKC
     FM082300 30012KT P6SM FEW250
     FM090400 29007KT P6SM FEW250
     FM091600 30014G21KT P6SM SKC=

USA.gov is the U.S. government's official web portal to all federal, state and local government web resources and services.